createdAt,value
2019-02-28T00:03:58.007Z,22.90
2019-02-28T00:08:59.786Z,25.70
2019-02-28T00:14:03.172Z,20.90
2019-02-28T00:19:06.733Z,23.70
2019-02-28T00:24:10.054Z,29.00
2019-02-28T00:29:13.717Z,26.40
2019-02-28T00:34:17.248Z,20.07
2019-02-28T00:39:20.542Z,29.67
2019-02-28T00:44:24.106Z,27.83
2019-02-28T00:49:27.389Z,26.63
2019-02-28T00:54:30.689Z,29.03
2019-02-28T00:59:33.978Z,22.80
2019-02-28T01:04:37.272Z,27.27
2019-02-28T01:09:40.866Z,28.57
2019-02-28T01:14:44.171Z,28.07
2019-02-28T01:19:47.722Z,30.37
2019-02-28T01:24:51.283Z,31.00
2019-02-28T01:29:54.585Z,34.27
2019-02-28T01:34:57.903Z,33.40
2019-02-28T01:40:04.533Z,31.27
2019-02-28T01:45:09.788Z,35.43
2019-02-28T01:50:14.245Z,34.30
2019-02-28T01:55:17.550Z,32.03
2019-02-28T02:00:23.776Z,36.53
2019-02-28T02:05:26.152Z,38.80
2019-02-28T02:10:29.686Z,38.37
2019-02-28T02:15:33.002Z,34.43
2019-02-28T02:20:36.309Z,39.03
2019-02-28T02:25:39.868Z,37.20
2019-02-28T02:30:43.209Z,39.10
2019-02-28T02:35:46.770Z,36.97
2019-02-28T02:40:50.084Z,36.47
2019-02-28T02:45:53.407Z,37.50
2019-02-28T02:50:56.713Z,35.50
2019-02-28T02:56:03.790Z,36.80
2019-02-28T03:01:05.080Z,40.43
2019-02-28T03:06:12.092Z,34.97
2019-02-28T03:11:13.418Z,42.23
2019-02-28T03:16:16.988Z,38.33
2019-02-28T03:21:20.544Z,40.70
2019-02-28T03:26:23.850Z,37.20
2019-02-28T03:31:27.192Z,40.90
2019-02-28T03:36:30.827Z,40.53
2019-02-28T03:41:34.359Z,38.10
2019-02-28T03:46:37.901Z,38.43
2019-02-28T03:51:41.428Z,40.90
2019-02-28T03:56:51.241Z,45.80
2019-02-28T04:01:49.747Z,38.63
2019-02-28T04:06:53.318Z,41.50
2019-02-28T04:11:56.866Z,40.67
2019-02-28T04:17:00.475Z,40.03
2019-02-28T04:22:03.886Z,42.73
2019-02-28T04:27:07.913Z,41.83
2019-02-28T04:32:11.507Z,39.57
2019-02-28T04:37:14.808Z,41.97
2019-02-28T04:42:18.355Z,42.73
2019-02-28T04:47:21.663Z,38.60
2019-02-28T04:52:25.283Z,43.50
2019-02-28T04:57:28.830Z,51.37
2019-02-28T05:02:32.386Z,45.97
2019-02-28T05:07:35.672Z,50.53
2019-02-28T05:12:39.971Z,47.13
2019-02-28T05:17:44.407Z,52.83
2019-02-28T05:22:47.993Z,50.13
2019-02-28T05:27:51.266Z,54.47
2019-02-28T05:32:54.552Z,50.73
2019-02-28T05:37:58.107Z,54.03
2019-02-28T05:43:01.473Z,46.87
2019-02-28T05:48:04.763Z,52.53
2019-02-28T05:53:09.358Z,52.97
2019-02-28T05:58:17.523Z,57.17
2019-02-28T06:03:18.590Z,55.90
2019-02-28T06:08:21.877Z,58.67
2019-02-28T06:13:25.423Z,58.53
2019-02-28T06:18:32.516Z,59.93
2019-02-28T06:23:33.778Z,61.47
2019-02-28T06:28:37.315Z,59.77
2019-02-28T06:33:40.623Z,69.43
2019-02-28T06:38:44.395Z,62.70
2019-02-28T06:43:50.272Z,61.43
2019-02-28T06:48:53.162Z,61.57
2019-02-28T06:53:56.708Z,70.70
2019-02-28T06:59:00.006Z,68.63
2019-02-28T07:04:03.587Z,66.07
2019-02-28T07:09:07.207Z,61.93
2019-02-28T07:14:13.750Z,66.40
2019-02-28T07:19:15.750Z,57.10
2019-02-28T07:24:19.289Z,66.90
2019-02-28T07:29:22.832Z,61.83
2019-02-28T07:34:26.130Z,65.03
2019-02-28T07:39:29.651Z,66.67
2019-02-28T07:44:33.192Z,71.73
2019-02-28T07:49:37.005Z,65.93
2019-02-28T07:54:40.639Z,62.10
2019-02-28T07:59:44.187Z,60.77
2019-02-28T08:04:50.675Z,63.03
2019-02-28T08:09:52.744Z,64.13
2019-02-28T08:14:56.336Z,66.47
2019-02-28T08:19:59.933Z,57.73
2019-02-28T08:25:03.305Z,64.47
2019-02-28T08:30:10.223Z,63.80
2019-02-28T08:35:15.108Z,66.63
2019-02-28T08:40:20.765Z,59.57
2019-02-28T08:45:24.323Z,62.13
2019-02-28T08:50:27.951Z,59.20
2019-02-28T08:55:31.561Z,71.63
2019-02-28T09:00:34.858Z,58.47
2019-02-28T09:05:38.161Z,60.10
2019-02-28T09:10:43.737Z,63.97
2019-02-28T09:15:47.125Z,59.33
2019-02-28T09:20:50.698Z,57.97
2019-02-28T09:25:56.750Z,64.00
2019-02-28T09:31:01.422Z,62.70
2019-02-28T09:36:04.483Z,109.27
2019-02-28T09:41:07.774Z,58.60
2019-02-28T09:46:12.514Z,56.53
2019-02-28T09:51:16.852Z,56.30
2019-02-28T09:56:20.378Z,55.93
2019-02-28T10:01:24.493Z,63.00
2019-02-28T10:06:28.700Z,62.63
2019-02-28T10:11:32.584Z,55.37
2019-02-28T10:16:36.341Z,63.60
2019-02-28T10:21:39.913Z,52.67
2019-02-28T10:26:43.217Z,49.47
2019-02-28T10:31:46.529Z,43.73
2019-02-28T10:36:49.839Z,39.03
2019-02-28T10:41:53.381Z,41.40
2019-02-28T10:46:57.082Z,38.17
2019-02-28T10:52:00.633Z,41.23
2019-02-28T10:57:06.123Z,40.37
2019-02-28T11:02:09.634Z,39.70
2019-02-28T11:07:13.045Z,38.87
2019-02-28T11:12:19.931Z,38.07
2019-02-28T11:17:21.382Z,41.07
2019-02-28T11:22:24.997Z,37.37
2019-02-28T11:27:30.569Z,36.43
2019-02-28T11:32:34.318Z,38.60
2019-02-28T11:37:37.881Z,40.00
2019-02-28T11:42:41.600Z,37.97
2019-02-28T11:47:45.599Z,40.73
2019-02-28T11:52:48.917Z,38.50
2019-02-28T11:57:52.281Z,37.07
2019-02-28T12:03:00.798Z,38.40
2019-02-28T12:08:02.340Z,40.50
2019-02-28T12:13:05.632Z,34.33
2019-02-28T12:18:09.249Z,40.77
2019-02-28T12:23:12.828Z,39.90
2019-02-28T12:28:16.384Z,39.90
2019-02-28T12:33:23.183Z,37.33
2019-02-28T12:38:25.910Z,38.50
2019-02-28T12:43:30.078Z,40.93
2019-02-28T12:48:33.995Z,40.93
2019-02-28T12:53:37.559Z,42.77
2019-02-28T12:58:41.727Z,40.90
2019-02-28T13:03:45.316Z,42.27
2019-02-28T13:08:48.602Z,45.30
2019-02-28T13:13:51.915Z,44.03
2019-02-28T13:18:55.180Z,44.17
2019-02-28T13:23:58.752Z,55.90
2019-02-28T13:29:02.311Z,55.03
2019-02-28T13:34:05.608Z,60.97
2019-02-28T13:39:09.420Z,57.23
2019-02-28T13:44:12.715Z,66.80
2019-02-28T13:49:16.012Z,64.13
2019-02-28T13:54:19.569Z,71.23
2019-02-28T13:59:23.124Z,64.13
2019-02-28T14:04:27.213Z,63.90
2019-02-28T14:09:30.930Z,59.97
2019-02-28T14:14:34.481Z,59.13
2019-02-28T14:19:37.799Z,53.97
2019-02-28T14:24:41.447Z,49.27
2019-02-28T14:29:48.360Z,47.43
2019-02-28T14:34:49.891Z,52.80
2019-02-28T14:39:53.207Z,46.70
2019-02-28T14:44:56.830Z,62.40
2019-02-28T14:50:00.287Z,61.43
2019-02-28T14:55:04.437Z,65.77
2019-02-28T15:00:19.307Z,68.00
2019-02-28T15:05:23.120Z,71.57
2019-02-28T15:10:34.210Z,70.53
2019-02-28T15:15:37.638Z,75.43
2019-02-28T15:20:40.939Z,74.07
2019-02-28T15:25:44.482Z,76.57
2019-02-28T15:30:48.028Z,60.73
2019-02-28T15:35:51.573Z,55.83
2019-02-28T15:40:55.724Z,59.23
2019-02-28T15:46:00.138Z,59.47
2019-02-28T15:51:03.693Z,62.20
2019-02-28T15:56:13.336Z,54.63
2019-02-28T16:01:13.986Z,46.83
2019-02-28T16:06:19.586Z,45.97
2019-02-28T16:11:23.503Z,46.17
2019-02-28T16:16:27.062Z,43.13
2019-02-28T16:21:30.406Z,46.53
2019-02-28T16:26:33.694Z,42.07
2019-02-28T16:31:38.649Z,39.10
2019-02-28T16:36:42.255Z,41.20
2019-02-28T16:41:45.555Z,38.40
2019-02-28T16:46:49.953Z,41.77
2019-02-28T16:51:53.886Z,35.53
2019-02-28T16:56:57.177Z,30.20
2019-02-28T17:02:01.299Z,33.33
2019-02-28T17:07:06.447Z,31.10
2019-02-28T17:12:20.137Z,30.40
2019-02-28T17:17:25.317Z,33.77
2019-02-28T17:22:28.621Z,31.30
2019-02-28T17:27:33.828Z,29.77
2019-02-28T17:32:37.459Z,30.90
2019-02-28T17:37:40.757Z,23.70
2019-02-28T17:42:46.381Z,27.40
2019-02-28T17:47:55.405Z,23.43
2019-02-28T17:53:25.577Z,21.13
2019-02-28T17:58:40.531Z,20.07
2019-02-28T18:03:49.994Z,17.73
2019-02-28T18:08:59.333Z,16.60
2019-02-28T18:14:22.770Z,13.93
2019-02-28T18:19:41.419Z,16.47
2019-02-28T18:25:06.988Z,16.07
2019-02-28T18:30:50.329Z,17.43
2019-02-28T18:35:53.632Z,13.90
2019-02-28T18:41:00.027Z,12.60
2019-02-28T18:46:02.197Z,15.37
2019-02-28T18:51:05.566Z,13.17
2019-02-28T18:56:12.727Z,14.53
2019-02-28T19:01:16.026Z,16.27
2019-02-28T19:06:19.593Z,13.83
2019-02-28T19:11:23.143Z,12.20
2019-02-28T19:16:26.495Z,15.53
2019-02-28T19:21:29.821Z,14.33
2019-02-28T19:26:34.981Z,9.00
2019-02-28T19:31:38.527Z,12.67
2019-02-28T19:36:41.837Z,11.40
2019-02-28T19:41:45.138Z,13.70
2019-02-28T19:46:48.528Z,13.07
2019-02-28T19:51:52.106Z,13.03
2019-02-28T19:56:55.634Z,14.37
2019-02-28T20:01:59.181Z,10.73
2019-02-28T20:07:02.720Z,15.27
2019-02-28T20:12:06.028Z,10.67
2019-02-28T20:17:09.580Z,10.07
2019-02-28T20:22:12.862Z,11.37
2019-02-28T20:27:17.088Z,10.93
2019-02-28T20:32:20.398Z,10.43
2019-02-28T20:37:23.732Z,12.23
2019-02-28T20:42:27.023Z,14.37
2019-02-28T20:47:30.348Z,10.93
2019-02-28T20:52:33.652Z,13.53
2019-02-28T20:57:37.215Z,13.93
2019-02-28T21:02:40.766Z,11.17
2019-02-28T21:07:44.392Z,12.63
2019-02-28T21:12:47.964Z,15.30
2019-02-28T21:17:51.523Z,17.63
2019-02-28T21:22:54.829Z,17.00
2019-02-28T21:27:58.251Z,12.37
2019-02-28T21:33:01.788Z,11.27
2019-02-28T21:38:05.397Z,11.87
2019-02-28T21:43:08.698Z,16.97
2019-02-28T21:48:11.975Z,14.37
2019-02-28T21:53:15.275Z,12.70
2019-02-28T21:58:18.568Z,12.30
2019-02-28T22:03:21.857Z,11.20
2019-02-28T22:08:25.449Z,12.17
2019-02-28T22:13:28.725Z,11.40
2019-02-28T22:18:32.012Z,11.30
2019-02-28T22:23:35.307Z,11.67
2019-02-28T22:28:38.604Z,13.53
2019-02-28T22:33:46.595Z,14.67
2019-02-28T22:38:49.890Z,13.93
2019-02-28T22:43:53.431Z,13.23
2019-02-28T22:48:56.805Z,16.73
2019-02-28T22:54:00.347Z,15.57
2019-02-28T22:59:04.016Z,15.50
2019-02-28T23:04:07.624Z,15.90
2019-02-28T23:09:11.462Z,18.10
2019-02-28T23:14:14.771Z,16.77
2019-02-28T23:19:18.077Z,19.80
2019-02-28T23:24:21.615Z,17.70
2019-02-28T23:29:26.800Z,23.63
2019-02-28T23:34:33.545Z,20.40
2019-02-28T23:39:37.098Z,21.87
2019-02-28T23:44:40.402Z,23.17
2019-02-28T23:49:43.943Z,21.03
2019-02-28T23:54:47.495Z,21.40
2019-02-28T23:59:51.039Z,21.17
